Arcadia, Florida
Current Conditions -  °F | °C
As of 9:53 AM on Monday 22 Dec 2014 (Local Time) from KPGD Reporting Station
Broken Clouds Broken Clouds  
Wind Chill: 23°   Ceiling: 10000
Heat Index: 23°   Visibility: 10mi
Dew Point: 19°   Wind: 14mph
Humidity: 79%   Direction: 190°S
Pressure: 30.04"   Gusts: NA
Location:  27.22°N, 81.86°W
Report Text: KPGD 221453Z 19012KT 10SM BKN100 23/19 A3004 RMK AO2 SLP173 T02330194 53011
Loading
Personal Weather Stations






























Interactive Weather Map New forecast layout! Learn more

10-Day Weather Forecast

Advertisements
Track Severe Weather on mobile